Time;durP1;ratioP1;P1;durP2;ratioP2;P2;SDS_P1;SDS_P2;PMS_P1;PMS_P2;Temp;Humidity;BMP_temperature;BMP_pressure;BME280_temperature;BME280_humidity;BME280_pressure;Samples;Min_cycle;Max_cycle;Signal;HPM_P1;HPM_P2
2022/05/26 00:01:04;;;;;;;5.18;1.10;;;14.70;99.90;;;;;;4991915;28;20398;-58
2022/05/26 00:03:34;;;;;;;5.07;1.50;;;14.70;99.90;;;;;;4991937;28;20520;-57
2022/05/26 00:06:00;;;;;;;6.00;1.15;;;14.80;99.90;;;;;;4992350;28;20433;-58
2022/05/26 00:08:27;;;;;;;4.60;1.30;;;14.80;99.90;;;;;;4992044;28;20403;-58
2022/05/26 00:10:54;;;;;;;5.45;1.45;;;14.90;99.90;;;;;;4991317;28;20430;-58
2022/05/26 00:13:20;;;;;;;5.72;1.40;;;15.00;99.90;;;;;;4991982;28;20449;-58
2022/05/26 00:15:46;;;;;;;5.10;1.40;;;15.10;99.90;;;;;;4991041;28;20406;-57
2022/05/26 00:18:11;;;;;;;4.97;1.27;;;15.20;99.90;;;;;;4993687;28;20399;-58
2022/05/26 00:20:37;;;;;;;5.10;1.30;;;15.20;99.90;;;;;;4991121;28;20389;-57
2022/05/26 00:23:02;;;;;;;5.40;1.20;;;15.30;99.90;;;;;;4989373;28;20811;-58
2022/05/26 00:25:28;;;;;;;4.95;1.30;;;15.40;99.90;;;;;;4991689;28;20489;-58
2022/05/26 00:27:54;;;;;;;5.28;1.20;;;15.50;99.90;;;;;;4991270;28;20961;-58
2022/05/26 00:30:20;;;;;;;4.80;1.30;;;15.50;99.90;;;;;;4991580;28;20910;-57
2022/05/26 00:32:45;;;;;;;8.23;1.77;;;15.50;99.90;;;;;;4990648;28;20916;-58
2022/05/26 00:35:12;;;;;;;5.50;1.20;;;15.60;99.90;;;;;;4991420;28;20514;-57
2022/05/26 00:37:38;;;;;;;5.28;1.20;;;15.70;99.90;;;;;;4990556;28;20411;-57
2022/05/26 00:40:06;;;;;;;5.20;1.30;;;15.70;99.90;;;;;;4991313;28;20406;-58
2022/05/26 00:42:31;;;;;;;4.78;1.00;;;15.70;99.90;;;;;;4991155;28;20505;-55
2022/05/26 00:44:57;;;;;;;5.30;1.50;;;15.70;99.90;;;;;;4990418;28;20513;-58
2022/05/26 00:47:27;;;;;;;6.80;1.40;;;15.60;99.90;;;;;;4989777;28;20387;-58
2022/05/26 00:50:25;;;;;;;5.30;1.50;;;15.70;99.90;;;;;;4990324;28;20394;-58
2022/05/26 00:53:01;;;;;;;5.70;1.30;;;15.60;99.90;;;;;;4989088;28;20394;-58
2022/05/26 00:55:35;;;;;;;5.10;1.30;;;15.50;99.90;;;;;;4988225;28;20944;-57
2022/05/26 00:58:14;;;;;;;5.03;1.20;;;15.50;99.90;;;;;;4973752;28;20453;-58
2022/05/26 01:00:40;;;;;;;4.83;1.20;;;15.40;99.90;;;;;;4990201;28;20529;-57
2022/05/26 01:03:06;;;;;;;5.13;1.40;;;15.20;99.90;;;;;;4992752;28;20876;-58
2022/05/26 01:06:05;;;;;;;4.53;1.20;;;15.10;99.90;;;;;;4990520;28;20461;-57
2022/05/26 01:08:37;;;;;;;4.80;1.10;;;15.10;99.90;;;;;;4973011;28;20937;-57
2022/05/26 01:11:04;;;;;;;5.55;1.23;;;15.00;99.90;;;;;;4990426;28;20561;-58
2022/05/26 01:13:31;;;;;;;4.70;1.40;;;14.90;99.90;;;;;;4990861;28;20825;-57
2022/05/26 01:16:24;;;;;;;5.40;1.30;;;14.70;99.90;;;;;;4972762;28;20481;-57
2022/05/26 01:19:15;;;;;;;5.47;1.60;;;14.50;99.90;;;;;;4948656;28;20448;-58
2022/05/26 01:21:42;;;;;;;5.60;1.50;;;14.50;99.90;;;;;;4989786;28;20436;-55
2022/05/26 01:24:35;;;;;;;6.60;1.40;;;14.60;99.90;;;;;;4990488;28;20456;-57
2022/05/26 01:27:26;;;;;;;5.60;1.50;;;14.60;99.90;;;;;;4987320;28;20523;-58
2022/05/26 01:30:24;;;;;;;5.60;1.40;;;14.50;1.00;;;;;;4987961;28;20453;-58
2022/05/26 01:33:29;;;;;;;6.05;1.75;;;14.50;99.90;;;;;;4970512;28;20876;-57
2022/05/26 01:36:09;;;;;;;6.80;1.40;;;14.50;1.00;;;;;;4906493;29;20538;-58
2022/05/26 01:39:14;;;;;;;6.28;1.40;;;14.40;1.00;;;;;;4983473;28;20429;-54
2022/05/26 01:42:03;;;;;;;5.40;1.20;;;14.40;1.00;;;;;;4989139;28;20551;-58
2022/05/26 01:44:46;;;;;;;7.05;1.52;;;14.30;1.00;;;;;;4988061;28;20416;-58
2022/05/26 01:47:22;;;;;;;5.80;1.58;;;14.20;1.00;;;;;;4988711;28;20406;-58
2022/05/26 01:49:54;;;;;;;6.20;1.43;;;14.10;1.00;;;;;;4987416;28;20454;-57
2022/05/26 01:52:31;;;;;;;5.10;1.60;;;14.10;1.00;;;;;;4990098;28;20540;-57
2022/05/26 01:55:12;;;;;;;5.10;1.40;;;14.00;1.00;;;;;;4989271;28;20413;-57
2022/05/26 01:57:47;;;;;;;4.95;1.33;;;14.00;1.00;;;;;;4990852;28;20390;-54
2022/05/26 02:00:16;;;;;;;7.50;1.75;;;13.90;1.00;;;;;;4988428;28;20853;-57
2022/05/26 02:03:02;;;;;;;5.50;1.40;;;13.80;99.90;;;;;;4990150;28;20469;-57
2022/05/26 02:05:40;;;;;;;5.80;1.45;;;13.70;99.90;;;;;;4988127;28;20391;-57
2022/05/26 02:08:44;;;;;;;4.97;1.50;;;13.50;99.90;;;;;;4987602;28;20736;-58
2022/05/26 02:11:17;;;;;;;5.70;1.30;;;13.70;99.90;;;;;;4977633;28;20450;-57
2022/05/26 02:13:48;;;;;;;7.50;1.50;;;13.70;99.90;;;;;;4991478;28;20450;-57
2022/05/26 02:16:17;;;;;;;5.10;1.40;;;13.60;99.90;;;;;;4990149;28;20410;-57
2022/05/26 02:18:59;;;;;;;4.90;1.40;;;13.50;99.90;;;;;;4989077;28;20753;-57
2022/05/26 02:21:40;;;;;;;4.70;1.50;;;13.50;99.90;;;;;;4987529;28;20415;-57
2022/05/26 02:24:12;;;;;;;6.13;1.52;;;13.50;99.90;;;;;;4987110;28;20422;-57
2022/05/26 02:26:38;;;;;;;6.10;2.10;;;13.50;99.90;;;;;;4989218;28;20422;-54
2022/05/26 02:31:52;;;;;;;5.30;1.77;;;13.50;99.90;;;;;;4972306;28;20406;-57
2022/05/26 02:34:21;;;;;;;5.55;1.50;;;13.50;99.90;;;;;;4989846;28;20399;-58
2022/05/26 02:36:52;;;;;;;5.10;1.40;;;13.60;99.90;;;;;;4987444;28;20452;-57
2022/05/26 02:39:17;;;;;;;5.35;1.30;;;13.40;99.90;;;;;;4989827;28;20445;-57
2022/05/26 02:41:43;;;;;;;4.90;1.60;;;13.40;99.90;;;;;;4988459;28;20409;-57
2022/05/26 02:44:10;;;;;;;4.63;1.30;;;13.40;99.90;;;;;;4988945;28;20970;-58
2022/05/26 02:46:42;;;;;;;6.65;1.70;;;13.40;99.90;;;;;;4989368;28;20485;-54
2022/05/26 02:49:29;;;;;;;5.25;1.30;;;13.30;99.90;;;;;;4989302;28;20481;-57
2022/05/26 02:52:05;;;;;;;5.63;1.30;;;13.40;99.90;;;;;;4987573;28;20422;-57
2022/05/26 02:54:43;;;;;;;4.78;1.45;;;13.40;99.90;;;;;;4987745;28;20909;-58
2022/05/26 02:57:38;;;;;;;4.95;1.45;;;13.40;99.90;;;;;;4987323;28;20490;-57
2022/05/26 03:00:04;;;;;;;4.78;1.30;;;13.40;99.90;;;;;;4988909;28;20485;-57
2022/05/26 03:02:29;;;;;;;7.00;1.60;;;13.40;99.90;;;;;;4989411;28;20986;-58
2022/05/26 03:05:09;;;;;;;4.80;1.35;;;13.30;99.90;;;;;;4988987;28;20644;-56
2022/05/26 03:07:37;;;;;;;5.20;1.50;;;12.70;99.90;;;;;;4988048;28;20437;-57
2022/05/26 03:10:06;;;;;;;6.45;1.38;;;13.40;99.90;;;;;;4988663;28;20442;-57
2022/05/26 03:12:34;;;;;;;5.70;1.30;;;13.50;99.90;;;;;;4987907;28;20899;-57
2022/05/26 03:15:00;;;;;;;6.70;1.60;;;13.50;99.90;;;;;;4988398;28;20402;-57
2022/05/26 03:17:26;;;;;;;4.75;1.35;;;13.40;99.90;;;;;;4988152;28;20394;-57
2022/05/26 03:19:52;;;;;;;6.25;1.50;;;13.40;99.90;;;;;;4992026;28;20390;-57
2022/05/26 03:22:18;;;;;;;5.00;1.30;;;13.40;1.00;;;;;;4992388;28;20908;-57
2022/05/26 03:24:44;;;;;;;5.50;1.30;;;13.50;99.90;;;;;;4991782;28;20403;-57
2022/05/26 03:27:10;;;;;;;5.28;1.30;;;13.50;99.90;;;;;;4992954;28;20398;-58
2022/05/26 03:29:35;;;;;;;5.70;1.40;;;13.50;99.90;;;;;;4991151;28;20771;-57
2022/05/26 03:32:01;;;;;;;6.78;1.50;;;13.60;99.90;;;;;;4991857;28;20406;-57
2022/05/26 03:42:43;;;;;;;4.75;1.40;;;13.50;99.90;;;;;;4991001;28;20410;-58
2022/05/26 03:45:10;;;;;;;4.72;1.40;;;13.50;1.00;;;;;;4992050;28;20434;-57
2022/05/26 03:47:36;;;;;;;8.35;1.50;;;13.50;1.00;;;;;;4990427;28;20394;-54
2022/05/26 03:50:02;;;;;;;5.57;1.05;;;13.50;99.90;;;;;;4991640;28;20899;-58
2022/05/26 03:52:27;;;;;;;5.67;1.30;;;13.50;99.90;;;;;;4992040;28;20494;-57
2022/05/26 03:54:53;;;;;;;7.10;1.60;;;13.60;99.90;;;;;;4991905;28;20383;-57
2022/05/26 03:57:26;;;;;;;5.95;1.45;;;13.60;99.90;;;;;;4991884;28;20502;-57
2022/05/26 03:59:52;;;;;;;6.38;1.35;;;13.70;99.90;;;;;;4987167;28;20390;-56
2022/05/26 04:02:18;;;;;;;7.68;1.60;;;13.80;99.90;;;;;;4991987;28;20426;-58
2022/05/26 04:04:44;;;;;;;5.40;1.60;;;13.80;99.90;;;;;;4990909;28;20741;-57
2022/05/26 04:07:11;;;;;;;5.40;1.33;;;13.80;99.90;;;;;;4991914;28;20391;-56
2022/05/26 04:09:37;;;;;;;4.57;1.10;;;13.80;99.90;;;;;;4991895;28;20904;-54
2022/05/26 04:12:04;;;;;;;7.10;1.40;;;13.80;99.90;;;;;;4990918;28;20413;-57
2022/05/26 04:14:31;;;;;;;5.00;1.40;;;13.90;99.20;;;;;;4991876;28;20390;-57
2022/05/26 04:16:58;;;;;;;7.68;1.50;;;14.00;89.20;;;;;;4991309;28;20391;-59
2022/05/26 04:19:24;;;;;;;4.95;1.30;;;14.10;80.20;;;;;;4991644;28;20434;-57
2022/05/26 04:24:34;;;;;;;5.43;1.40;;;14.20;49.50;;;;;;4990531;28;20381;-58
2022/05/26 04:27:00;;;;;;;5.30;1.40;;;14.20;85.70;;;;;;4990346;28;20402;-57
2022/05/26 04:29:25;;;;;;;5.13;1.30;;;14.20;78.90;;;;;;4989725;28;20402;-58
2022/05/26 04:31:51;;;;;;;6.13;1.60;;;14.10;56.00;;;;;;4990556;28;20726;-58
2022/05/26 04:34:18;;;;;;;6.20;1.20;;;14.20;67.90;;;;;;4991590;28;20875;-58
2022/05/26 04:36:44;;;;;;;5.70;1.30;;;14.20;42.10;;;;;;4972905;28;20391;-57
2022/05/26 04:39:10;;;;;;;4.70;1.30;;;14.30;17.70;;;;;;4991536;28;20402;-59
2022/05/26 04:41:35;;;;;;;9.33;1.20;;;14.40;1.00;;;;;;4991744;28;20788;-58
2022/05/26 04:44:01;;;;;;;6.70;1.30;;;14.40;1.00;;;;;;4990025;28;20427;-57
2022/05/26 04:46:26;;;;;;;5.75;1.60;;;14.50;1.00;;;;;;4991248;28;20466;-58
2022/05/26 04:48:52;;;;;;;5.60;1.10;;;14.60;1.00;;;;;;4989994;28;20428;-57
2022/05/26 04:51:18;;;;;;;6.00;1.30;;;14.60;1.00;;;;;;4990928;28;20760;-58
2022/05/26 04:53:44;;;;;;;4.90;1.30;;;14.80;1.00;;;;;;4990174;28;20418;-57
2022/05/26 04:56:11;;;;;;;4.90;1.30;;;15.40;1.00;;;;;;4990970;28;20387;-57
2022/05/26 04:58:36;;;;;;;7.38;1.48;;;16.70;1.00;;;;;;4990649;28;20434;-55
2022/05/26 05:01:12;;;;;;;5.20;1.40;;;16.80;99.90;;;;;;4990088;28;20784;-58
2022/05/26 05:03:37;;;;;;;5.20;1.30;;;16.80;99.90;;;;;;4990235;28;20477;-52
2022/05/26 05:06:03;;;;;;;6.45;1.70;;;17.70;99.90;;;;;;4990552;28;20407;-58
2022/05/26 05:08:29;;;;;;;8.10;1.45;;;18.50;99.90;;;;;;4990640;28;20485;-56
2022/05/26 05:10:54;;;;;;;5.80;1.30;;;19.40;99.90;;;;;;4989702;28;20429;-58
2022/05/26 05:13:20;;;;;;;6.00;1.30;;;19.80;99.90;;;;;;4991234;28;20760;-56
2022/05/26 05:16:00;;;;;;;4.77;1.10;;;18.80;99.90;;;;;;4989764;28;20446;-56
2022/05/26 05:18:26;;;;;;;5.40;1.23;;;18.80;99.90;;;;;;4988601;28;20780;-56
2022/05/26 05:20:55;;;;;;;4.90;1.10;;;19.90;99.90;;;;;;4989808;28;20397;-58
2022/05/26 05:23:21;;;;;;;5.20;1.10;;;20.40;99.90;;;;;;4990248;28;20504;-58
2022/05/26 05:25:49;;;;;;;5.00;1.27;;;20.50;99.90;;;;;;4989913;28;20383;-58
2022/05/26 05:28:56;;;;;;;5.70;1.30;;;19.90;99.90;;;;;;4990551;28;20401;-56
2022/05/26 05:31:48;;;;;;;7.60;1.40;;;19.00;99.90;;;;;;4976807;28;20480;-56
2022/05/26 05:34:21;;;;;;;4.97;1.20;;;18.60;99.90;;;;;;4989430;28;20386;-58
2022/05/26 05:36:48;;;;;;;5.10;1.20;;;17.80;99.90;;;;;;4988562;28;20493;-58
2022/05/26 05:39:13;;;;;;;5.50;1.20;;;17.60;99.90;;;;;;4990078;28;20434;-57
2022/05/26 05:41:39;;;;;;;5.80;1.20;;;17.10;99.90;;;;;;4989494;28;20469;-54
2022/05/26 05:44:05;;;;;;;7.00;1.45;;;17.00;99.90;;;;;;4989597;28;20896;-58
2022/05/26 05:46:34;;;;;;;5.00;1.00;;;18.00;99.90;;;;;;4989744;28;20477;-56
2022/05/26 05:49:02;;;;;;;6.15;1.20;;;19.30;99.90;;;;;;4988919;28;20408;-56
2022/05/26 05:51:28;;;;;;;4.70;1.30;;;19.90;99.90;;;;;;4987461;28;20481;-56
2022/05/26 05:53:55;;;;;;;5.97;1.40;;;19.20;99.90;;;;;;4988627;28;20493;-56
2022/05/26 05:56:20;;;;;;;6.10;1.50;;;18.70;99.90;;;;;;4989894;28;20405;-56
2022/05/26 05:58:46;;;;;;;7.40;1.40;;;18.10;99.90;;;;;;4989010;28;20391;-56
2022/05/26 06:01:11;;;;;;;5.60;1.20;;;17.80;99.90;;;;;;4990312;28;20450;-59
2022/05/26 06:03:38;;;;;;;5.00;1.10;;;17.60;99.90;;;;;;4986517;28;20658;-58
2022/05/26 06:06:05;;;;;;;6.10;1.50;;;17.50;99.90;;;;;;4984091;28;20473;-58
2022/05/26 06:08:32;;;;;;;6.10;1.20;;;17.30;99.90;;;;;;4988282;28;20410;-58
2022/05/26 06:10:58;;;;;;;11.32;1.52;;;17.00;99.90;;;;;;4988316;28;20488;-58
2022/05/26 06:13:24;;;;;;;4.95;1.30;;;17.10;99.90;;;;;;4989656;28;20395;-58
2022/05/26 06:15:49;;;;;;;5.20;1.23;;;17.10;99.90;;;;;;4989365;28;20804;-58
2022/05/26 06:18:16;;;;;;;7.25;1.30;;;17.10;99.90;;;;;;4989294;28;20888;-58
2022/05/26 06:20:43;;;;;;;9.07;1.27;;;17.30;99.90;;;;;;4988937;28;20395;-55
2022/05/26 06:23:09;;;;;;;5.30;1.10;;;17.30;99.90;;;;;;4989372;28;20944;-58
2022/05/26 06:25:34;;;;;;;5.65;1.70;;;17.30;99.90;;;;;;4989396;28;20402;-58
2022/05/26 06:30:45;;;;;;;6.30;1.40;;;17.70;99.90;;;;;;4986909;28;20462;-54
2022/05/26 06:38:42;;;;;;;6.88;1.35;;;17.80;99.90;;;;;;4974726;28;20402;-53
2022/05/26 06:43:55;;;;;;;5.20;1.10;;;17.90;99.90;;;;;;4988632;28;20471;-56
2022/05/26 06:46:20;;;;;;;5.30;1.40;;;17.80;99.90;;;;;;4989436;28;20395;-55
2022/05/26 06:48:46;;;;;;;7.40;1.10;;;17.80;99.90;;;;;;4988906;28;20398;-56
2022/05/26 06:51:13;;;;;;;5.97;1.10;;;18.20;99.90;;;;;;4988590;28;20891;-56
2022/05/26 06:53:39;;;;;;;5.80;1.20;;;18.20;99.90;;;;;;4991140;28;20389;-56
2022/05/26 06:56:08;;;;;;;5.38;1.30;;;18.20;99.90;;;;;;4986876;28;20414;-56
2022/05/26 06:58:34;;;;;;;6.03;1.00;;;18.50;99.90;;;;;;5004356;28;20657;-56
2022/05/26 07:00:59;;;;;;;5.10;1.10;;;18.50;99.90;;;;;;4991433;28;20903;-55
2022/05/26 07:03:27;;;;;;;5.20;1.00;;;18.80;99.90;;;;;;4994858;28;20425;-59
2022/05/26 07:05:53;;;;;;;5.70;1.10;;;19.10;99.90;;;;;;4990882;28;20414;-59
2022/05/26 07:08:19;;;;;;;5.90;1.20;;;19.50;99.90;;;;;;5003420;28;20433;-59
2022/05/26 07:10:46;;;;;;;6.50;1.27;;;19.60;99.90;;;;;;4991344;28;20437;-58
2022/05/26 07:13:14;;;;;;;6.03;1.30;;;20.00;99.90;;;;;;4991332;28;20519;-59
2022/05/26 07:15:40;;;;;;;5.07;1.40;;;19.60;99.90;;;;;;4993013;28;20395;-59
2022/05/26 07:18:07;;;;;;;4.60;1.10;;;20.10;99.90;;;;;;4992756;28;20386;-60
2022/05/26 07:20:36;;;;;;;5.68;1.23;;;20.90;1.00;;;;;;4993026;28;20398;-62
2022/05/26 07:23:08;;;;;;;7.33;1.47;;;21.70;99.90;;;;;;4990777;28;21017;-60
2022/05/26 07:25:34;;;;;;;7.53;1.42;;;21.40;99.90;;;;;;4986379;28;20392;-62
2022/05/26 07:28:00;;;;;;;6.28;1.50;;;21.60;99.90;;;;;;5005659;28;20417;-62
2022/05/26 07:30:25;;;;;;;7.40;1.53;;;21.70;99.90;;;;;;4991669;28;20738;-61
2022/05/26 07:32:51;;;;;;;7.28;1.45;;;21.60;99.90;;;;;;4991608;28;20461;-62
2022/05/26 07:35:17;;;;;;;5.60;1.25;;;21.80;99.90;;;;;;4990242;28;20409;-61
2022/05/26 07:43:13;;;;;;;5.47;1.20;;;20.70;99.90;;;;;;4990663;28;20414;-60
2022/05/26 07:45:39;;;;;;;5.53;1.30;;;20.10;99.90;;;;;;4993919;28;20402;-59
2022/05/26 07:48:05;;;;;;;4.93;1.57;;;19.50;99.90;;;;;;4991326;28;20399;-60
2022/05/26 07:50:31;;;;;;;5.90;1.20;;;19.30;99.90;;;;;;4992147;28;20898;-59
2022/05/26 07:52:56;;;;;;;5.60;1.50;;;19.30;99.90;;;;;;4991228;28;20737;-59
2022/05/26 07:55:22;;;;;;;5.40;1.40;;;19.30;99.90;;;;;;4991822;28;20456;-59
2022/05/26 07:57:48;;;;;;;6.80;1.30;;;19.50;99.90;;;;;;4991479;28;20502;-58
2022/05/26 08:00:17;;;;;;;5.75;1.10;;;19.50;99.90;;;;;;4992211;28;20392;-59
2022/05/26 08:02:43;;;;;;;4.82;1.30;;;19.50;99.90;;;;;;4991714;28;20422;-53
2022/05/26 08:05:10;;;;;;;7.00;1.50;;;19.60;99.90;;;;;;4991757;28;20386;-59
2022/05/26 08:07:35;;;;;;;5.82;1.40;;;19.60;99.90;;;;;;4991790;28;20379;-59
2022/05/26 08:10:02;;;;;;;5.70;1.20;;;19.60;99.90;;;;;;4991166;28;21204;-59
2022/05/26 08:12:27;;;;;;;5.93;1.45;;;19.50;99.90;;;;;;4992062;28;20390;-61
2022/05/26 08:14:53;;;;;;;5.93;1.10;;;19.50;99.90;;;;;;4991049;28;21191;-59
2022/05/26 08:17:22;;;;;;;9.60;1.50;;;19.30;99.90;;;;;;4991150;28;20394;-61
2022/05/26 08:19:48;;;;;;;5.70;1.40;;;19.30;99.90;;;;;;4990990;28;20757;-59
2022/05/26 08:22:15;;;;;;;5.13;1.20;;;19.30;99.90;;;;;;4991503;28;20422;-61
2022/05/26 08:24:40;;;;;;;5.80;1.10;;;19.40;99.90;;;;;;4991562;28;20391;-60
2022/05/26 08:27:06;;;;;;;5.60;1.30;;;19.20;99.90;;;;;;4990935;28;20552;-61
2022/05/26 08:29:32;;;;;;;5.83;1.30;;;19.20;99.90;;;;;;4991674;28;20462;-59
2022/05/26 08:31:57;;;;;;;6.60;1.45;;;19.30;99.90;;;;;;4991088;28;20856;-59
2022/05/26 08:34:23;;;;;;;5.70;1.30;;;19.30;99.90;;;;;;4991552;28;20395;-59
2022/05/26 08:36:49;;;;;;;6.00;1.20;;;19.10;99.90;;;;;;4990914;28;20421;-59
2022/05/26 08:39:16;;;;;;;5.70;1.25;;;19.30;99.90;;;;;;4991107;28;20869;-59
2022/05/26 08:41:46;;;;;;;6.78;1.33;;;19.50;99.90;;;;;;4991204;28;20546;-57
2022/05/26 08:44:32;;;;;;;5.60;1.10;;;19.70;99.90;;;;;;4991564;28;20423;-59
2022/05/26 08:47:16;;;;;;;4.60;1.13;;;19.60;99.90;;;;;;4990579;28;20494;-59
2022/05/26 08:49:46;;;;;;;5.30;1.10;;;19.50;99.90;;;;;;4991281;28;20391;-59
2022/05/26 08:52:20;;;;;;;4.97;1.20;;;19.40;99.90;;;;;;4991745;28;20425;-60
2022/05/26 08:54:58;;;;;;;5.40;1.30;;;19.50;99.90;;;;;;4990584;28;20394;-54
2022/05/26 08:57:28;;;;;;;5.20;1.20;;;19.70;99.90;;;;;;4991082;28;20395;-59
2022/05/26 08:59:54;;;;;;;4.70;1.20;;;19.70;99.90;;;;;;4990732;28;20387;-59
2022/05/26 09:02:24;;;;;;;7.10;1.48;;;20.00;99.90;;;;;;4991104;28;20448;-59
2022/05/26 09:04:50;;;;;;;5.18;1.30;;;20.10;99.90;;;;;;4990434;28;20452;-59
2022/05/26 09:13:21;;;;;;;6.10;1.20;;;21.80;99.90;;;;;;4991039;28;20390;-62
2022/05/26 09:15:47;;;;;;;4.60;1.00;;;21.90;99.90;;;;;;4972510;28;20836;-57
2022/05/26 09:18:18;;;;;;;6.43;1.20;;;22.00;99.90;;;;;;4990943;28;20383;-62
2022/05/26 09:20:47;;;;;;;6.28;1.23;;;21.20;99.90;;;;;;4990420;28;20457;-54
2022/05/26 09:23:27;;;;;;;5.60;1.40;;;21.40;99.90;;;;;;4990391;28;20839;-62
2022/05/26 09:26:15;;;;;;;7.80;1.90;;;21.20;99.90;;;;;;4972614;28;20808;-63
2022/05/26 09:28:54;;;;;;;5.90;1.30;;;21.60;99.90;;;;;;4990691;28;20387;-62
2022/05/26 09:31:22;;;;;;;6.40;1.20;;;21.80;99.90;;;;;;4990817;28;20389;-62
2022/05/26 09:34:14;;;;;;;5.28;1.35;;;22.00;99.90;;;;;;4989833;28;20395;-59
2022/05/26 09:36:44;;;;;;;4.70;1.10;;;22.20;99.90;;;;;;4986632;28;20405;-64
2022/05/26 09:39:11;;;;;;;5.68;1.50;;;22.00;99.90;;;;;;4990373;28;20398;-62
2022/05/26 09:41:45;;;;;;;5.28;1.40;;;22.00;99.90;;;;;;4991033;28;20481;-61
2022/05/26 09:44:37;;;;;;;4.90;1.20;;;22.00;99.90;;;;;;4990287;28;20706;-62
2022/05/26 09:47:18;;;;;;;5.57;1.40;;;21.60;99.90;;;;;;4985753;28;20872;-59
2022/05/26 09:49:49;;;;;;;5.60;1.40;;;21.20;99.90;;;;;;4989995;28;20470;-54
2022/05/26 09:52:18;;;;;;;6.57;1.23;;;20.80;99.90;;;;;;4990408;28;20394;-60
2022/05/26 09:54:46;;;;;;;5.30;0.90;;;20.50;99.90;;;;;;4972917;28;20389;-54
2022/05/26 09:57:25;;;;;;;5.72;1.40;;;20.40;99.90;;;;;;4990130;28;20390;-59
2022/05/26 09:59:51;;;;;;;6.00;1.30;;;20.60;99.90;;;;;;4989704;28;20399;-60
2022/05/26 10:02:36;;;;;;;5.23;1.30;;;20.50;99.90;;;;;;4990263;28;20507;-59
2022/05/26 10:05:30;;;;;;;6.20;1.30;;;20.60;99.90;;;;;;4989516;28;21178;-60
2022/05/26 10:08:27;;;;;;;6.57;1.23;;;20.40;99.90;;;;;;4972033;28;20418;-60
2022/05/26 10:11:01;;;;;;;5.38;1.30;;;20.40;99.90;;;;;;4989039;28;20406;-59
2022/05/26 10:13:48;;;;;;;5.82;1.33;;;20.70;99.90;;;;;;4990129;28;20398;-60
2022/05/26 10:16:32;;;;;;;5.22;1.20;;;20.80;99.90;;;;;;4990417;28;20851;-60
2022/05/26 10:19:19;;;;;;;6.20;1.08;;;20.80;99.90;;;;;;4989209;28;20883;-60
2022/05/26 10:22:08;;;;;;;6.47;1.27;;;20.80;99.90;;;;;;4990000;28;20382;-57
2022/05/26 10:24:58;;;;;;;9.30;1.70;;;21.40;99.90;;;;;;4990078;28;20398;-62
2022/05/26 10:27:48;;;;;;;6.30;1.50;;;21.40;99.90;;;;;;4991512;28;20417;-62
2022/05/26 10:30:25;;;;;;;5.97;1.30;;;21.50;99.90;;;;;;4994377;28;20387;-62
2022/05/26 10:33:28;;;;;;;6.20;1.13;;;21.80;99.90;;;;;;4993524;28;20429;-62
2022/05/26 10:36:10;;;;;;;5.50;1.40;;;21.50;99.90;;;;;;4993337;28;20382;-60
2022/05/26 10:38:51;;;;;;;5.30;1.40;;;21.30;99.90;;;;;;4993665;28;20394;-60
2022/05/26 10:41:27;;;;;;;7.55;1.20;;;21.10;99.90;;;;;;4993922;28;20478;-57
2022/05/26 10:43:59;;;;;;;8.68;1.60;;;21.00;99.90;;;;;;4992985;28;20477;-60
2022/05/26 10:46:27;;;;;;;5.70;1.40;;;20.90;99.90;;;;;;4993976;28;20445;-60
2022/05/26 10:49:04;;;;;;;5.90;1.60;;;20.80;99.90;;;;;;4993150;28;20378;-60
2022/05/26 10:51:43;;;;;;;7.32;1.50;;;20.80;99.90;;;;;;4993898;28;20473;-60
2022/05/26 10:54:26;;;;;;;5.00;1.40;;;21.00;99.90;;;;;;4992791;28;21250;-60
2022/05/26 10:57:17;;;;;;;6.20;1.47;;;21.10;99.90;;;;;;4992781;28;20474;-62
2022/05/26 10:59:53;;;;;;;5.60;1.53;;;21.40;99.90;;;;;;4992660;28;20417;-61
2022/05/26 11:02:29;;;;;;;7.35;1.58;;;21.50;99.90;;;;;;4993734;28;20390;-57
2022/05/26 11:05:02;;;;;;;5.97;1.50;;;21.50;99.90;;;;;;4992816;28;21234;-60
2022/05/26 11:07:48;;;;;;;4.90;1.40;;;21.50;99.90;;;;;;4993661;28;20514;-60
2022/05/26 11:10:41;;;;;;;5.85;1.50;;;21.30;99.90;;;;;;4993205;28;20417;-62
2022/05/26 11:13:29;;;;;;;6.15;1.50;;;21.50;99.90;;;;;;4992501;28;20397;-62
2022/05/26 11:19:16;;;;;;;6.32;1.50;;;21.60;99.90;;;;;;4992866;28;20409;-62
2022/05/26 11:21:42;;;;;;;7.32;1.80;;;21.40;99.90;;;;;;4993423;28;20386;-63
2022/05/26 11:24:11;;;;;;;5.88;1.67;;;21.20;99.90;;;;;;4992647;28;21051;-62
2022/05/26 11:26:53;;;;;;;6.10;1.80;;;21.20;99.90;;;;;;4993112;28;20378;-62
2022/05/26 11:29:31;;;;;;;6.50;2.10;;;21.10;99.90;;;;;;4992922;28;20418;-60
2022/05/26 11:38:43;;;;;;;9.05;1.90;;;20.90;99.90;;;;;;4975872;28;20513;-61
2022/05/26 11:41:34;;;;;;;5.55;1.70;;;21.10;99.90;;;;;;4988346;28;21314;-61
2022/05/26 11:44:09;;;;;;;5.30;1.75;;;21.20;99.90;;;;;;4968832;28;20963;-62
2022/05/26 11:46:45;;;;;;;6.63;1.63;;;21.50;99.90;;;;;;4981150;28;20456;-60
2022/05/26 11:49:31;;;;;;;6.20;2.00;;;21.40;99.90;;;;;;4979103;28;20411;-58
2022/05/26 11:51:57;;;;;;;6.32;2.55;;;20.80;99.90;;;;;;4991742;28;20796;-59
2022/05/26 11:55:02;;;;;;;6.38;1.80;;;20.50;99.90;;;;;;4974804;28;20390;-59
2022/05/26 11:57:53;;;;;;;6.63;1.80;;;20.20;99.90;;;;;;4915826;29;20406;-60
2022/05/26 12:00:34;;;;;;;7.40;2.30;;;20.10;99.90;;;;;;4991462;28;20756;-62
2022/05/26 12:03:21;;;;;;;6.30;1.95;;;20.20;99.90;;;;;;4991151;28;20438;-57
2022/05/26 12:05:54;;;;;;;6.00;1.90;;;20.20;99.90;;;;;;4992403;28;21098;-57
2022/05/26 12:08:27;;;;;;;6.80;2.03;;;20.20;99.90;;;;;;4991047;28;20407;-60
2022/05/26 12:10:57;;;;;;;7.30;1.80;;;20.20;99.90;;;;;;4991214;28;20415;-60
2022/05/26 12:13:28;;;;;;;6.95;2.10;;;20.40;99.90;;;;;;4991146;28;20433;-60
2022/05/26 12:16:20;;;;;;;5.93;2.00;;;20.20;99.90;;;;;;4983227;28;20399;-60
2022/05/26 12:18:50;;;;;;;5.65;1.90;;;20.40;99.90;;;;;;4981370;28;20399;-60
2022/05/26 12:21:27;;;;;;;6.70;1.88;;;20.20;99.90;;;;;;5010232;28;20885;-61
2022/05/26 12:23:54;;;;;;;6.00;1.73;;;20.10;99.90;;;;;;5010541;28;20906;-61
2022/05/26 12:26:47;;;;;;;6.40;1.73;;;20.50;99.90;;;;;;4994380;28;20413;-59
2022/05/26 12:29:40;;;;;;;6.20;1.60;;;21.00;99.90;;;;;;5010672;28;20393;-60
2022/05/26 12:32:29;;;;;;;7.60;1.90;;;21.30;99.90;;;;;;4991337;28;20458;-60
2022/05/26 12:35:16;;;;;;;5.53;1.70;;;21.60;99.90;;;;;;4991149;28;20454;-60
2022/05/26 12:38:11;;;;;;;6.20;1.70;;;21.60;99.90;;;;;;4991854;28;20390;-61
2022/05/26 12:41:18;;;;;;;6.05;1.80;;;21.10;99.90;;;;;;5009414;28;20392;-61
2022/05/26 12:44:19;;;;;;;7.38;2.10;;;20.80;99.90;;;;;;4991796;28;20421;-61
2022/05/26 12:46:52;;;;;;;6.00;1.90;;;20.50;99.90;;;;;;4998424;28;20408;-61
2022/05/26 12:49:30;;;;;;;9.70;2.60;;;20.50;99.90;;;;;;4991622;28;20472;-60
2022/05/26 12:52:23;;;;;;;6.90;1.90;;;20.40;99.90;;;;;;4989557;28;20465;-60
2022/05/26 12:54:55;;;;;;;6.50;1.70;;;20.40;99.90;;;;;;4993844;28;20492;-57
2022/05/26 12:57:24;;;;;;;6.23;2.00;;;20.40;99.90;;;;;;4991805;28;20398;-59
2022/05/26 12:59:49;;;;;;;7.38;2.20;;;20.40;99.90;;;;;;4990463;28;20421;-58
2022/05/26 13:02:16;;;;;;;6.35;2.00;;;20.40;99.90;;;;;;4991099;28;20462;-60
2022/05/26 13:04:44;;;;;;;6.10;1.77;;;20.20;99.90;;;;;;4976695;28;20904;-60
2022/05/26 13:07:12;;;;;;;6.20;1.65;;;20.20;99.90;;;;;;4984632;28;20406;-59
2022/05/26 13:09:49;;;;;;;5.10;1.85;;;20.10;99.90;;;;;;4981548;28;20922;-58
2022/05/26 13:12:23;;;;;;;6.70;1.60;;;19.90;99.90;;;;;;4989992;28;20411;-59
2022/05/26 13:14:52;;;;;;;5.97;1.70;;;19.70;99.90;;;;;;4986191;28;20879;-57
2022/05/26 13:17:23;;;;;;;5.60;1.70;;;19.90;99.90;;;;;;4990506;28;20772;-61
2022/05/26 13:19:54;;;;;;;5.20;1.70;;;19.90;99.90;;;;;;4986986;28;20432;-58
2022/05/26 13:22:31;;;;;;;6.22;1.63;;;19.80;99.90;;;;;;4984211;28;20489;-58
2022/05/26 13:25:05;;;;;;;6.13;1.73;;;20.00;99.90;;;;;;4987661;28;20506;-59
2022/05/26 13:27:57;;;;;;;5.40;1.50;;;20.10;99.90;;;;;;4986845;28;20421;-59
2022/05/26 13:33:17;;;;;;;7.50;1.80;;;20.40;99.90;;;;;;4988971;28;20793;-59
2022/05/26 13:35:48;;;;;;;6.03;1.50;;;20.20;99.90;;;;;;4988873;28;20425;-58
2022/05/26 13:38:30;;;;;;;7.97;1.80;;;20.10;99.90;;;;;;4983827;28;20398;-58
2022/05/26 13:40:58;;;;;;;6.18;1.60;;;20.10;99.90;;;;;;4985582;28;20402;-59
2022/05/26 13:43:24;;;;;;;4.95;1.50;;;20.10;99.90;;;;;;4984201;28;20452;-60
2022/05/26 13:45:51;;;;;;;5.75;1.60;;;20.10;99.90;;;;;;4984470;28;20417;-57
2022/05/26 13:48:37;;;;;;;8.32;1.63;;;20.40;99.90;;;;;;4989799;28;20399;-60
2022/05/26 13:51:14;;;;;;;6.05;1.45;;;20.50;99.90;;;;;;4974845;28;20392;-60
2022/05/26 13:53:46;;;;;;;6.10;1.60;;;20.50;99.90;;;;;;4975953;28;20420;-60
2022/05/26 13:56:22;;;;;;;5.40;1.60;;;20.50;99.90;;;;;;4976514;28;20565;-61
2022/05/26 13:58:48;;;;;;;6.60;1.50;;;20.70;99.90;;;;;;4988758;28;20395;-59
2022/05/26 14:01:14;;;;;;;5.57;1.40;;;20.60;99.90;;;;;;4988271;28;20399;-61
2022/05/26 14:03:41;;;;;;;6.50;1.90;;;20.90;99.90;;;;;;4988762;28;20442;-60
2022/05/26 14:06:31;;;;;;;5.50;1.60;;;21.00;99.90;;;;;;4988661;28;20950;-58